createdAt,value
2022-12-15T00:01:49.828Z,26.53
2022-12-15T00:04:34.712Z,25.97
2022-12-15T00:07:19.600Z,25.53
2022-12-15T00:10:04.480Z,22.30
2022-12-15T00:12:49.398Z,22.30
2022-12-15T00:15:34.612Z,24.30
2022-12-15T00:18:24.071Z,25.53
2022-12-15T00:21:09.196Z,22.27
2022-12-15T00:23:54.953Z,27.53
2022-12-15T00:26:39.902Z,24.43
2022-12-15T00:29:25.324Z,20.17
2022-12-15T00:32:10.191Z,21.80
2022-12-15T00:34:55.224Z,21.90
2022-12-15T00:37:39.966Z,22.30
2022-12-15T00:40:07.374Z,22.43
2022-12-15T00:42:34.022Z,20.87
2022-12-15T00:45:01.127Z,20.27
2022-12-15T00:47:27.540Z,21.03
2022-12-15T00:50:12.513Z,20.53
2022-12-15T00:52:57.292Z,18.80
2022-12-15T00:55:42.032Z,22.27
2022-12-15T00:58:26.804Z,21.30
2022-12-15T01:01:11.776Z,19.33
2022-12-15T01:03:56.801Z,20.57
2022-12-15T01:06:42.104Z,17.73
2022-12-15T01:09:29.239Z,20.37
2022-12-15T01:12:14.113Z,17.90
2022-12-15T01:14:59.259Z,19.03
2022-12-15T01:17:44.289Z,21.50
2022-12-15T01:20:32.695Z,20.23
2022-12-15T01:22:59.133Z,18.87
2022-12-15T01:25:26.054Z,20.30
2022-12-15T01:27:52.883Z,21.57
2022-12-15T01:30:24.056Z,21.23
2022-12-15T01:32:51.061Z,20.37
2022-12-15T01:35:17.907Z,18.43
2022-12-15T01:37:44.786Z,23.63
2022-12-15T01:40:35.393Z,22.17
2022-12-15T01:43:01.870Z,22.30
2022-12-15T01:45:31.331Z,20.97
2022-12-15T01:48:06.137Z,22.30
2022-12-15T01:50:37.945Z,26.07
2022-12-15T01:53:04.494Z,21.67
2022-12-15T01:55:32.238Z,19.67
2022-12-15T01:58:06.792Z,21.13
2022-12-15T02:00:34.295Z,24.07
2022-12-15T02:03:02.129Z,17.87
2022-12-15T02:05:31.724Z,17.53
2022-12-15T02:08:00.436Z,20.57
2022-12-15T02:10:37.480Z,21.10
2022-12-15T02:13:09.792Z,21.73
2022-12-15T02:15:42.232Z,16.60
2022-12-15T02:18:51.322Z,17.23
2022-12-15T02:21:35.265Z,18.67
2022-12-15T02:24:49.682Z,19.17
2022-12-15T02:27:16.319Z,19.77
2022-12-15T02:30:13.644Z,19.30
2022-12-15T02:32:50.118Z,20.50
2022-12-15T02:35:55.175Z,17.43
2022-12-15T02:38:34.478Z,20.63
2022-12-15T02:41:02.963Z,18.10
2022-12-15T02:43:33.521Z,17.73
2022-12-15T02:46:15.419Z,18.30
2022-12-15T02:48:48.754Z,21.67
2022-12-15T02:51:27.645Z,18.70
2022-12-15T02:54:03.944Z,16.47
2022-12-15T02:57:12.096Z,21.50
2022-12-15T02:59:55.473Z,17.17
2022-12-15T03:02:26.503Z,16.03
2022-12-15T03:04:53.903Z,18.33
2022-12-15T03:07:23.408Z,17.93
2022-12-15T03:09:49.896Z,21.50
2022-12-15T03:12:16.446Z,23.93
2022-12-15T03:14:42.871Z,20.53
2022-12-15T03:17:09.430Z,25.83
2022-12-15T03:19:36.058Z,21.17
2022-12-15T03:22:02.633Z,19.50
2022-12-15T03:24:29.047Z,21.23
2022-12-15T03:26:55.854Z,21.77
2022-12-15T03:29:22.302Z,20.70
2022-12-15T03:31:49.919Z,23.83
2022-12-15T03:34:17.057Z,19.37
2022-12-15T03:36:43.823Z,21.10
2022-12-15T03:39:10.281Z,25.33
2022-12-15T03:41:36.669Z,23.83
2022-12-15T03:44:03.328Z,25.03
2022-12-15T03:46:29.888Z,23.03
2022-12-15T03:48:56.404Z,23.30
2022-12-15T03:51:22.811Z,22.33
2022-12-15T03:53:49.273Z,20.27
2022-12-15T03:56:16.830Z,20.70
2022-12-15T03:58:43.360Z,22.07
2022-12-15T04:01:11.333Z,19.33
2022-12-15T04:03:37.951Z,20.53
2022-12-15T04:06:04.756Z,19.23
2022-12-15T04:08:31.228Z,24.03
2022-12-15T04:11:00.006Z,22.03
2022-12-15T04:13:26.383Z,20.63
2022-12-15T04:15:52.861Z,22.57
2022-12-15T04:18:20.263Z,22.97
2022-12-15T04:20:46.782Z,17.17
2022-12-15T04:23:16.656Z,20.67
2022-12-15T04:26:01.672Z,20.93
2022-12-15T04:28:46.651Z,19.07
2022-12-15T04:31:51.366Z,18.67
2022-12-15T04:34:42.393Z,21.23
2022-12-15T04:37:30.477Z,21.23
2022-12-15T04:40:16.014Z,23.23
2022-12-15T04:43:04.406Z,16.73
2022-12-15T04:45:49.392Z,20.00
2022-12-15T04:48:34.695Z,24.27
2022-12-15T04:51:20.046Z,21.20
2022-12-15T04:54:05.260Z,17.20
2022-12-15T04:56:50.289Z,20.43
2022-12-15T04:59:35.969Z,20.63
2022-12-15T05:02:21.257Z,23.07
2022-12-15T05:05:06.259Z,20.93
2022-12-15T05:07:51.295Z,18.77
2022-12-15T05:10:36.061Z,18.17
2022-12-15T05:13:27.741Z,16.23
2022-12-15T05:16:12.891Z,21.73
2022-12-15T05:18:58.070Z,15.07
2022-12-15T05:21:42.839Z,19.83
2022-12-15T05:24:27.707Z,18.90
2022-12-15T05:27:12.566Z,20.93
2022-12-15T05:29:57.386Z,21.97
2022-12-15T05:32:23.903Z,19.50
2022-12-15T05:34:50.320Z,18.23
2022-12-15T05:37:16.674Z,18.60
2022-12-15T05:39:43.212Z,20.60
2022-12-15T05:42:09.644Z,18.40
2022-12-15T05:44:36.088Z,22.17
2022-12-15T05:47:02.706Z,20.87
2022-12-15T05:49:29.080Z,23.43
2022-12-15T05:51:57.355Z,20.40
2022-12-15T05:54:23.809Z,19.90
2022-12-15T05:56:50.687Z,22.70
2022-12-15T05:59:17.734Z,19.23
2022-12-15T06:01:44.325Z,16.77
2022-12-15T06:04:14.752Z,20.87
2022-12-15T06:06:41.963Z,19.47
2022-12-15T06:09:08.774Z,21.37
2022-12-15T06:11:35.264Z,20.60
2022-12-15T06:14:02.603Z,18.13
2022-12-15T06:16:29.257Z,19.57
2022-12-15T06:19:00.687Z,24.53
2022-12-15T06:21:29.848Z,35.28
2022-12-15T06:23:57.140Z,31.67
2022-12-15T06:26:28.176Z,25.03
2022-12-15T06:28:56.902Z,32.47
2022-12-15T06:31:25.430Z,25.67
2022-12-15T06:33:57.661Z,26.23
2022-12-15T06:36:26.346Z,25.70
2022-12-15T06:38:52.818Z,20.73
2022-12-15T06:41:21.341Z,20.70
2022-12-15T06:43:52.478Z,21.67
2022-12-15T06:46:19.280Z,21.60
2022-12-15T06:48:46.654Z,21.27
2022-12-15T06:51:17.443Z,20.97
2022-12-15T06:53:54.288Z,19.47
2022-12-15T06:56:32.473Z,20.97
2022-12-15T06:59:01.068Z,23.03
2022-12-15T07:01:27.920Z,23.23
2022-12-15T07:03:55.307Z,20.83
2022-12-15T07:06:22.599Z,24.07
2022-12-15T07:08:52.421Z,21.87
2022-12-15T07:11:20.901Z,18.93
2022-12-15T07:13:52.101Z,21.97
2022-12-15T07:16:18.720Z,25.07
2022-12-15T07:18:45.303Z,23.30
2022-12-15T07:21:12.150Z,22.87
2022-12-15T07:23:56.347Z,26.40
2022-12-15T07:26:24.353Z,25.43
2022-12-15T07:28:51.085Z,23.57
2022-12-15T07:31:17.771Z,28.30
2022-12-15T07:33:44.487Z,26.33
2022-12-15T07:36:11.133Z,28.00
2022-12-15T07:38:37.514Z,26.97
2022-12-15T07:41:06.806Z,33.20
2022-12-15T07:43:33.847Z,33.47
2022-12-15T07:46:00.778Z,33.50
2022-12-15T07:48:27.754Z,37.73
2022-12-15T07:51:02.781Z,36.33
2022-12-15T07:53:33.896Z,35.57
2022-12-15T07:56:09.637Z,38.97
2022-12-15T07:58:37.992Z,33.93
2022-12-15T08:01:07.284Z,28.40
2022-12-15T08:03:34.834Z,39.63
2022-12-15T08:06:10.395Z,37.50
2022-12-15T08:08:37.135Z,37.37
2022-12-15T08:11:13.437Z,35.60
2022-12-15T08:16:28.148Z,38.00
2022-12-15T08:18:57.022Z,37.83
2022-12-15T08:21:23.562Z,36.93
2022-12-15T08:23:50.593Z,37.20
2022-12-15T08:26:18.687Z,40.93
2022-12-15T08:28:45.768Z,37.70
2022-12-15T08:31:16.638Z,39.53
2022-12-15T08:33:43.757Z,37.90
2022-12-15T08:36:12.882Z,38.90
2022-12-15T08:38:40.979Z,39.13
2022-12-15T08:41:13.178Z,39.70
2022-12-15T08:43:47.703Z,34.43
2022-12-15T08:46:20.913Z,38.67
2022-12-15T08:48:48.088Z,39.37
2022-12-15T08:51:15.006Z,35.53
2022-12-15T08:53:42.298Z,33.63
2022-12-15T08:56:12.160Z,39.70
2022-12-15T08:58:39.584Z,37.20
2022-12-15T09:01:17.319Z,36.07
2022-12-15T09:03:47.277Z,35.87
2022-12-15T09:06:23.548Z,38.03
2022-12-15T09:08:50.493Z,38.27
2022-12-15T09:11:17.591Z,39.23
2022-12-15T09:13:44.377Z,37.70
2022-12-15T09:16:14.563Z,43.97
2022-12-15T09:18:46.588Z,42.80
2022-12-15T09:21:14.470Z,38.93
2022-12-15T09:23:41.460Z,37.03
2022-12-15T09:26:14.274Z,34.60
2022-12-15T09:28:42.858Z,41.30
2022-12-15T09:31:20.705Z,43.23
2022-12-15T09:33:47.548Z,39.60
2022-12-15T09:36:14.456Z,35.17
2022-12-15T09:38:42.759Z,38.97
2022-12-15T09:41:15.408Z,39.43
2022-12-15T09:44:03.064Z,43.27
2022-12-15T09:46:51.269Z,42.00
2022-12-15T09:49:29.891Z,41.33
2022-12-15T09:52:08.879Z,39.83
2022-12-15T09:54:37.778Z,34.47
2022-12-15T09:57:24.180Z,39.03
2022-12-15T10:00:05.270Z,36.87
2022-12-15T10:02:40.809Z,37.40
2022-12-15T10:05:57.295Z,37.33
2022-12-15T10:08:22.070Z,38.87
2022-12-15T10:10:58.540Z,39.53
2022-12-15T10:13:37.575Z,32.63
2022-12-15T10:16:14.236Z,33.30
2022-12-15T10:19:01.884Z,32.23
2022-12-15T10:21:31.616Z,34.10
2022-12-15T10:24:44.364Z,33.40
2022-12-15T10:27:43.879Z,31.03
2022-12-15T10:30:14.009Z,30.40
2022-12-15T10:33:02.844Z,32.80
2022-12-15T10:35:32.984Z,34.30
2022-12-15T10:38:23.251Z,34.50
2022-12-15T10:40:53.469Z,30.13
2022-12-15T10:43:38.186Z,36.67
2022-12-15T10:46:18.407Z,31.13
2022-12-15T10:49:10.911Z,31.30
2022-12-15T10:51:43.595Z,31.00
2022-12-15T10:54:09.973Z,33.93
2022-12-15T10:56:47.524Z,31.53
2022-12-15T10:59:38.091Z,32.43
2022-12-15T11:02:29.459Z,30.83
2022-12-15T11:05:04.872Z,28.97
2022-12-15T11:07:41.445Z,34.20
2022-12-15T11:10:26.292Z,32.57
2022-12-15T11:13:15.671Z,31.07
2022-12-15T11:15:53.358Z,31.93
2022-12-15T11:18:41.073Z,32.97
2022-12-15T11:21:12.864Z,28.90
2022-12-15T11:23:50.544Z,28.53
2022-12-15T11:26:51.160Z,26.37
2022-12-15T11:29:27.158Z,25.37
2022-12-15T11:31:56.518Z,29.60
2022-12-15T11:34:32.154Z,28.60
2022-12-15T11:37:16.924Z,29.27
2022-12-15T11:39:57.292Z,29.23
2022-12-15T11:42:42.083Z,29.73
2022-12-15T11:45:37.902Z,31.20
2022-12-15T11:48:20.867Z,28.67
2022-12-15T11:51:02.463Z,28.30
2022-12-15T11:53:47.762Z,34.43
2022-12-15T11:56:24.912Z,27.50
2022-12-15T11:59:06.677Z,29.47
2022-12-15T12:05:12.694Z,28.60
2022-12-15T12:07:49.161Z,28.03
2022-12-15T12:10:30.856Z,28.30
2022-12-15T12:13:26.432Z,26.77
2022-12-15T12:16:17.891Z,33.80
2022-12-15T12:19:02.791Z,32.43
2022-12-15T12:21:40.865Z,27.60
2022-12-15T12:24:36.395Z,34.70
2022-12-15T12:27:26.174Z,31.30
2022-12-15T12:30:00.371Z,29.10
2022-12-15T12:32:50.432Z,29.40
2022-12-15T12:35:32.324Z,28.07
2022-12-15T12:38:03.858Z,30.13
2022-12-15T12:40:40.075Z,28.93
2022-12-15T12:43:15.150Z,28.90
2022-12-15T12:46:06.944Z,30.60
2022-12-15T12:48:38.536Z,30.60
2022-12-15T12:51:24.548Z,29.80
2022-12-15T12:53:51.710Z,29.93
2022-12-15T12:56:40.489Z,28.23
2022-12-15T12:59:28.813Z,30.70
2022-12-15T13:01:57.075Z,30.60
2022-12-15T13:04:29.624Z,32.20
2022-12-15T13:06:55.954Z,30.43
2022-12-15T13:09:25.426Z,32.43
2022-12-15T13:11:51.896Z,31.23
2022-12-15T13:14:31.419Z,29.13
2022-12-15T13:17:28.519Z,31.57
2022-12-15T13:19:58.098Z,32.00
2022-12-15T13:22:31.563Z,28.57
2022-12-15T13:24:58.334Z,33.80
2022-12-15T13:27:36.248Z,32.23
2022-12-15T13:30:05.682Z,32.97
2022-12-15T13:32:44.670Z,32.33
2022-12-15T13:35:11.827Z,32.07
2022-12-15T13:37:48.989Z,31.27
2022-12-15T13:40:37.255Z,35.60
2022-12-15T13:43:03.610Z,30.23
2022-12-15T13:45:55.901Z,29.47
2022-12-15T13:48:34.055Z,34.33
2022-12-15T13:51:25.722Z,31.67
2022-12-15T13:54:16.229Z,31.57
2022-12-15T13:57:01.351Z,32.03
2022-12-15T13:59:40.153Z,34.23
2022-12-15T14:02:25.450Z,29.07
2022-12-15T14:05:19.972Z,32.80
2022-12-15T14:07:58.685Z,32.50
2022-12-15T14:10:41.843Z,30.60
2022-12-15T14:13:16.117Z,30.27
2022-12-15T14:15:47.177Z,29.77
2022-12-15T14:18:39.094Z,28.87
2022-12-15T14:21:07.447Z,31.57
2022-12-15T14:24:03.935Z,32.43
2022-12-15T14:26:31.760Z,32.53
2022-12-15T14:29:03.844Z,29.73
2022-12-15T14:31:31.063Z,33.97
2022-12-15T14:34:07.915Z,36.87
2022-12-15T14:36:35.808Z,35.23
2022-12-15T14:39:06.506Z,28.93
2022-12-15T14:41:40.892Z,30.40
2022-12-15T14:44:36.960Z,28.13
2022-12-15T14:47:08.366Z,31.77
2022-12-15T14:49:45.132Z,30.00
2022-12-15T14:52:30.355Z,33.37
2022-12-15T14:55:00.029Z,29.80
2022-12-15T14:57:43.483Z,30.03
2022-12-15T15:00:25.716Z,30.57
2022-12-15T15:03:12.648Z,29.97
2022-12-15T15:06:02.154Z,30.83
2022-12-15T15:08:32.545Z,30.87
2022-12-15T15:11:04.488Z,30.90
2022-12-15T15:13:40.089Z,29.77
2022-12-15T15:16:13.732Z,36.17
2022-12-15T15:18:42.736Z,29.40
2022-12-15T15:21:17.000Z,30.90
2022-12-15T15:23:58.361Z,30.17
2022-12-15T15:26:26.087Z,33.27
2022-12-15T15:28:52.542Z,31.33
2022-12-15T15:31:41.548Z,32.83
2022-12-15T15:34:09.812Z,30.93
2022-12-15T15:36:39.484Z,28.83
2022-12-15T15:39:15.907Z,28.10
2022-12-15T15:41:42.628Z,31.10
2022-12-15T15:44:13.696Z,33.27
2022-12-15T15:46:58.215Z,30.30
2022-12-15T15:49:24.692Z,33.07
2022-12-15T15:51:51.158Z,32.50
2022-12-15T15:54:22.852Z,29.07
2022-12-15T15:56:49.303Z,33.50
2022-12-15T15:59:18.522Z,31.70
2022-12-15T16:01:48.653Z,31.20
2022-12-15T16:04:15.353Z,36.87
2022-12-15T16:06:46.990Z,33.83
2022-12-15T16:09:15.013Z,41.43
2022-12-15T16:11:41.485Z,37.70
2022-12-15T16:14:12.896Z,34.23
2022-12-15T16:16:39.324Z,32.33
2022-12-15T16:19:05.894Z,34.77
2022-12-15T16:21:32.646Z,29.30
2022-12-15T16:24:07.666Z,31.63
2022-12-15T16:26:37.173Z,31.70
2022-12-15T16:29:14.107Z,31.37
2022-12-15T16:31:45.313Z,31.13
2022-12-15T16:34:12.877Z,34.30
2022-12-15T16:36:40.815Z,35.10
2022-12-15T16:39:36.634Z,30.60
2022-12-15T16:42:04.152Z,31.07
2022-12-15T16:44:30.847Z,31.00
2022-12-15T16:46:57.744Z,33.53
2022-12-15T16:49:24.792Z,37.13
2022-12-15T16:51:53.354Z,31.93
2022-12-15T16:54:25.391Z,33.97
2022-12-15T16:56:53.684Z,38.03
2022-12-15T16:59:33.132Z,31.47
2022-12-15T17:02:01.079Z,34.57
2022-12-15T17:04:27.639Z,34.07
2022-12-15T17:06:54.257Z,35.73
2022-12-15T17:09:25.531Z,36.93
2022-12-15T17:11:52.094Z,33.00
2022-12-15T17:14:18.498Z,37.37
2022-12-15T17:16:46.147Z,34.27
2022-12-15T17:19:17.549Z,36.83
2022-12-15T17:21:53.391Z,35.60
2022-12-15T17:24:21.685Z,38.50
2022-12-15T17:26:49.196Z,38.83
2022-12-15T17:29:20.206Z,38.90
2022-12-15T17:31:47.000Z,35.20
2022-12-15T17:34:33.431Z,36.43
2022-12-15T17:37:02.592Z,41.50
2022-12-15T17:39:29.987Z,36.07
2022-12-15T17:42:01.523Z,45.83
2022-12-15T17:44:34.487Z,41.60
2022-12-15T17:47:02.263Z,42.57
2022-12-15T17:49:35.138Z,42.83
2022-12-15T17:52:05.296Z,48.10
2022-12-15T17:54:31.827Z,42.23
2022-12-15T17:56:58.589Z,41.37
2022-12-15T17:59:25.094Z,45.07
2022-12-15T18:01:52.029Z,48.00
2022-12-15T18:04:18.525Z,40.37
2022-12-15T18:06:45.226Z,44.73
2022-12-15T18:09:19.903Z,42.90
2022-12-15T18:11:46.997Z,39.63
2022-12-15T18:14:19.564Z,43.57
2022-12-15T18:16:46.462Z,43.03
2022-12-15T18:19:13.329Z,41.03
2022-12-15T18:21:40.026Z,39.87
2022-12-15T18:24:14.004Z,40.50
2022-12-15T18:26:40.488Z,42.23
2022-12-15T18:29:17.443Z,42.73
2022-12-15T18:31:46.511Z,42.63
2022-12-15T18:34:15.763Z,41.57
2022-12-15T18:36:42.955Z,41.80
2022-12-15T18:39:30.145Z,41.13
2022-12-15T18:41:57.382Z,41.67
2022-12-15T18:44:30.860Z,46.20
2022-12-15T18:46:57.725Z,38.83
2022-12-15T18:49:24.442Z,36.63
2022-12-15T18:51:51.327Z,45.80
2022-12-15T18:54:21.181Z,44.00
2022-12-15T18:56:47.738Z,44.90
2022-12-15T18:59:15.904Z,38.83
2022-12-15T19:01:46.111Z,47.43
2022-12-15T19:04:13.138Z,47.57
2022-12-15T19:06:40.887Z,50.23
2022-12-15T19:09:27.685Z,55.38
2022-12-15T19:12:12.901Z,44.17
2022-12-15T19:14:42.775Z,47.60
2022-12-15T19:17:36.744Z,38.07
2022-12-15T19:20:33.186Z,44.70
2022-12-15T19:22:59.961Z,44.63
2022-12-15T19:25:28.570Z,43.10
2022-12-15T19:27:59.302Z,49.77
2022-12-15T19:30:29.362Z,48.80
2022-12-15T19:32:55.776Z,52.70
2022-12-15T19:35:22.475Z,52.90
2022-12-15T19:37:50.088Z,55.73
2022-12-15T19:40:22.609Z,47.93
2022-12-15T19:42:49.669Z,50.73
2022-12-15T19:45:22.503Z,48.57
2022-12-15T19:47:49.068Z,41.43
2022-12-15T19:50:22.515Z,45.93
2022-12-15T19:52:52.365Z,40.00
2022-12-15T19:55:25.823Z,40.00
2022-12-15T19:57:52.511Z,39.23
2022-12-15T20:00:22.021Z,37.20
2022-12-15T20:02:51.453Z,38.93
2022-12-15T20:05:19.738Z,38.93
2022-12-15T20:07:47.130Z,39.83
2022-12-15T20:10:31.944Z,39.97
2022-12-15T20:13:00.138Z,38.00
2022-12-15T20:15:26.619Z,36.87
2022-12-15T20:17:57.010Z,37.57
2022-12-15T20:20:25.888Z,36.07
2022-12-15T20:22:55.193Z,42.20
2022-12-15T20:25:40.657Z,38.63
2022-12-15T20:28:15.374Z,41.07
2022-12-15T20:30:42.009Z,41.30
2022-12-15T20:33:08.509Z,40.87
2022-12-15T20:35:36.595Z,45.03
2022-12-15T20:38:17.228Z,44.73
2022-12-15T20:40:43.805Z,46.03
2022-12-15T20:43:18.207Z,44.23
2022-12-15T20:45:47.393Z,42.47
2022-12-15T20:48:15.084Z,51.95
2022-12-15T20:50:44.649Z,44.70
2022-12-15T20:53:22.980Z,50.73
2022-12-15T20:55:50.766Z,42.20
2022-12-15T20:58:17.728Z,44.47
2022-12-15T21:00:45.380Z,48.03
2022-12-15T21:03:19.737Z,45.20
2022-12-15T21:05:47.539Z,43.90
2022-12-15T21:08:25.973Z,50.30
2022-12-15T21:10:54.225Z,47.47
2022-12-15T21:13:27.352Z,41.87
2022-12-15T21:15:54.293Z,48.37
2022-12-15T21:19:11.025Z,47.60
2022-12-15T21:21:16.858Z,45.90
2022-12-15T21:23:43.396Z,47.23
2022-12-15T21:26:10.720Z,48.73
2022-12-15T21:28:37.080Z,47.13
2022-12-15T21:31:03.720Z,49.67
2022-12-15T21:33:30.225Z,44.37
2022-12-15T21:35:56.663Z,48.50
2022-12-15T21:38:31.312Z,47.77
2022-12-15T21:41:00.380Z,43.33
2022-12-15T21:43:29.528Z,49.03
2022-12-15T21:45:56.286Z,45.00
2022-12-15T21:48:41.283Z,45.17
2022-12-15T21:51:13.426Z,46.57
2022-12-15T21:53:40.132Z,44.00
2022-12-15T21:56:06.911Z,42.40
2022-12-15T21:58:35.095Z,48.33
2022-12-15T22:01:01.854Z,46.27
2022-12-15T22:03:28.419Z,41.07
2022-12-15T22:05:54.765Z,43.10
2022-12-15T22:08:22.144Z,60.30
2022-12-15T22:10:50.856Z,60.10
2022-12-15T22:13:20.916Z,62.60
2022-12-15T22:15:50.620Z,45.90
2022-12-15T22:18:22.404Z,53.83
2022-12-15T22:20:50.224Z,53.23
2022-12-15T22:23:18.693Z,47.70
2022-12-15T22:25:47.404Z,52.33
2022-12-15T22:28:33.094Z,46.60
2022-12-15T22:31:02.291Z,47.63
2022-12-15T22:33:28.708Z,39.07
2022-12-15T22:35:56.333Z,43.73
2022-12-15T22:38:23.421Z,41.17
2022-12-15T22:40:55.884Z,41.13
2022-12-15T22:43:41.565Z,38.90
2022-12-15T22:46:12.497Z,41.97
2022-12-15T22:48:41.755Z,39.80
2022-12-15T22:51:12.971Z,39.03
2022-12-15T22:53:39.499Z,43.63
2022-12-15T22:56:20.133Z,47.13
2022-12-15T22:58:48.165Z,40.43
2022-12-15T23:01:14.587Z,39.30
2022-12-15T23:03:41.064Z,40.30
2022-12-15T23:06:07.595Z,40.27
2022-12-15T23:08:33.986Z,42.30
2022-12-15T23:11:19.109Z,37.63
2022-12-15T23:13:45.552Z,39.27
2022-12-15T23:16:21.657Z,40.63
2022-12-15T23:18:53.432Z,38.03
2022-12-15T23:21:23.149Z,43.30
2022-12-15T23:23:49.648Z,43.63
2022-12-15T23:26:18.460Z,44.67
2022-12-15T23:28:45.776Z,44.33
2022-12-15T23:31:12.552Z,44.03
2022-12-15T23:33:39.058Z,42.83
2022-12-15T23:36:06.209Z,42.30
2022-12-15T23:38:32.715Z,43.23
2022-12-15T23:40:59.197Z,41.93
2022-12-15T23:43:27.362Z,42.47
2022-12-15T23:46:06.398Z,40.40
2022-12-15T23:48:38.603Z,43.23
2022-12-15T23:51:14.781Z,45.73
2022-12-15T23:53:42.185Z,40.70
2022-12-15T23:56:14.599Z,40.43
2022-12-15T23:58:43.074Z,43.30
